Time;durP1;ratioP1;P1;durP2;ratioP2;P2;SDS_P1;SDS_P2;PMS_P1;PMS_P2;Temp;Humidity;BMP_temperature;BMP_pressure;BME280_temperature;BME280_humidity;BME280_pressure;Samples;Min_cycle;Max_cycle;Signal;HPM_P1;HPM_P2
2023/05/16 00:02:04;;;;;;;7.20;6.05;;;;;;;;;;5045584;28;20051;-78
2023/05/16 00:04:31;;;;;;;9.43;6.10;;;;;;;;;;5042652;28;20464;-78
2023/05/16 00:06:57;;;;;;;8.82;6.13;;;;;;;;;;5039883;28;20036;-78
2023/05/16 00:09:22;;;;;;;10.07;6.15;;;;;;;;;;5041943;28;20025;-78
2023/05/16 00:11:47;;;;;;;8.65;6.72;;;;;;;;;;5041318;28;20052;-79
2023/05/16 00:14:13;;;;;;;11.00;6.20;;;;;;;;;;5041824;28;20037;-78
2023/05/16 00:16:40;;;;;;;7.10;6.28;;;;;;;;;;5040707;28;20388;-78
2023/05/16 00:19:06;;;;;;;10.90;5.95;;;;;;;;;;5045942;28;20037;-78
2023/05/16 00:21:31;;;;;;;8.32;6.80;;;;;;;;;;5047850;28;20431;-78
2023/05/16 00:23:56;;;;;;;10.57;6.68;;;;;;;;;;5041269;28;20083;-78
2023/05/16 00:26:22;;;;;;;9.52;6.90;;;;;;;;;;5041998;28;20025;-78
2023/05/16 00:28:47;;;;;;;7.88;6.65;;;;;;;;;;5048249;28;20029;-78
2023/05/16 00:31:12;;;;;;;8.73;6.40;;;;;;;;;;5041983;28;20078;-78
2023/05/16 00:33:37;;;;;;;8.93;6.97;;;;;;;;;;5040911;28;20040;-78
2023/05/16 00:36:03;;;;;;;9.35;6.70;;;;;;;;;;5041626;28;20033;-78
2023/05/16 00:38:28;;;;;;;7.35;5.65;;;;;;;;;;5045942;28;20033;-78
2023/05/16 00:40:53;;;;;;;11.38;6.80;;;;;;;;;;5043394;28;20065;-78
2023/05/16 00:43:18;;;;;;;9.85;6.82;;;;;;;;;;5043424;28;20017;-78
2023/05/16 00:45:44;;;;;;;7.90;6.90;;;;;;;;;;5044669;28;20029;-78
2023/05/16 00:48:10;;;;;;;8.57;6.82;;;;;;;;;;5044517;28;20646;-78
2023/05/16 00:50:36;;;;;;;8.45;5.95;;;;;;;;;;5045939;28;20033;-79
2023/05/16 00:53:01;;;;;;;12.60;6.75;;;;;;;;;;5043994;28;20702;-78
2023/05/16 00:55:27;;;;;;;8.88;6.35;;;;;;;;;;5050101;28;20060;-78
2023/05/16 00:57:52;;;;;;;8.85;6.78;;;;;;;;;;5046974;28;20033;-78
2023/05/16 01:00:18;;;;;;;7.95;6.53;;;;;;;;;;5047356;28;20512;-78
2023/05/16 01:02:44;;;;;;;9.90;7.20;;;;;;;;;;5047040;28;20037;-78
2023/05/16 01:05:10;;;;;;;8.23;6.45;;;;;;;;;;5045217;28;20021;-78
2023/05/16 01:07:35;;;;;;;11.25;6.95;;;;;;;;;;5043062;28;20032;-78
2023/05/16 01:10:01;;;;;;;9.98;6.68;;;;;;;;;;5046499;28;20037;-78
2023/05/16 01:12:40;;;;;;;8.65;6.25;;;;;;;;;;5045428;28;20103;-78
2023/05/16 01:15:14;;;;;;;10.55;7.35;;;;;;;;;;5031300;28;20124;-77
2023/05/16 01:17:48;;;;;;;9.23;7.45;;;;;;;;;;5045952;28;20029;-78
2023/05/16 01:20:14;;;;;;;11.50;7.70;;;;;;;;;;5046367;28;20029;-78
2023/05/16 01:22:50;;;;;;;9.32;7.75;;;;;;;;;;5045801;28;20025;-78
2023/05/16 01:25:15;;;;;;;8.23;7.35;;;;;;;;;;5043407;28;20033;-78
2023/05/16 01:27:40;;;;;;;10.43;8.23;;;;;;;;;;5044222;28;20182;-78
2023/05/16 01:30:12;;;;;;;10.05;8.00;;;;;;;;;;5044832;28;20032;-78
2023/05/16 01:32:38;;;;;;;9.30;7.57;;;;;;;;;;5044303;28;20039;-77
2023/05/16 01:35:04;;;;;;;11.70;8.00;;;;;;;;;;5044699;28;20021;-78
2023/05/16 01:37:34;;;;;;;10.35;8.55;;;;;;;;;;5044436;28;20513;-77
2023/05/16 01:40:08;;;;;;;9.88;8.85;;;;;;;;;;5042326;28;20029;-78
2023/05/16 01:42:35;;;;;;;12.30;8.15;;;;;;;;;;5044721;28;20055;-78
2023/05/16 01:45:22;;;;;;;12.13;7.57;;;;;;;;;;5043753;28;20502;-78
2023/05/16 01:47:51;;;;;;;11.60;9.48;;;;;;;;;;5058953;28;20025;-78
2023/05/16 01:50:19;;;;;;;11.43;9.85;;;;;;;;;;5043120;28;20037;-78
2023/05/16 01:52:50;;;;;;;14.32;11.07;;;;;;;;;;5042838;28;20036;-78
2023/05/16 01:55:20;;;;;;;13.25;9.85;;;;;;;;;;5043779;28;20048;-78
2023/05/16 01:57:47;;;;;;;11.02;9.90;;;;;;;;;;5042357;28;20033;-78
2023/05/16 02:00:12;;;;;;;13.02;10.32;;;;;;;;;;5044243;28;20507;-77
2023/05/16 02:02:41;;;;;;;14.07;11.57;;;;;;;;;;5042438;28;20025;-78
2023/05/16 02:05:07;;;;;;;13.45;10.75;;;;;;;;;;5045632;28;20029;-78
2023/05/16 02:07:33;;;;;;;14.68;11.65;;;;;;;;;;5043797;28;20066;-78
2023/05/16 02:09:58;;;;;;;14.45;12.18;;;;;;;;;;5041919;28;20109;-78
2023/05/16 02:12:23;;;;;;;14.48;11.68;;;;;;;;;;5045307;28;20373;-78
2023/05/16 02:14:49;;;;;;;17.75;12.35;;;;;;;;;;5044639;28;20040;-78
2023/05/16 02:17:15;;;;;;;14.02;11.82;;;;;;;;;;5044107;28;20035;-77
2023/05/16 02:19:41;;;;;;;16.67;12.63;;;;;;;;;;5041330;28;20026;-77
2023/05/16 02:22:06;;;;;;;16.52;12.57;;;;;;;;;;5051723;28;20029;-77
2023/05/16 02:24:31;;;;;;;15.35;12.70;;;;;;;;;;5049026;28;20087;-76
2023/05/16 02:26:57;;;;;;;18.60;13.93;;;;;;;;;;5044167;28;20307;-77
2023/05/16 02:29:22;;;;;;;17.30;13.38;;;;;;;;;;5048564;28;20092;-77
2023/05/16 02:31:47;;;;;;;15.48;11.60;;;;;;;;;;5046452;28;20563;-77
2023/05/16 02:34:13;;;;;;;15.77;12.05;;;;;;;;;;5042256;28;20568;-77
2023/05/16 02:36:38;;;;;;;14.57;11.95;;;;;;;;;;5044860;28;20532;-76
2023/05/16 02:39:03;;;;;;;16.13;13.73;;;;;;;;;;5042099;28;20056;-77
2023/05/16 02:41:29;;;;;;;15.00;12.95;;;;;;;;;;5041048;28;20029;-77
2023/05/16 02:43:54;;;;;;;16.67;14.77;;;;;;;;;;5043047;28;20484;-76
2023/05/16 02:46:26;;;;;;;20.50;18.30;;;;;;;;;;5042601;28;20456;-77
2023/05/16 02:48:52;;;;;;;17.33;15.25;;;;;;;;;;5040399;28;20095;-77
2023/05/16 02:51:19;;;;;;;21.33;16.25;;;;;;;;;;5042246;28;20479;-77
2023/05/16 02:53:44;;;;;;;18.60;16.20;;;;;;;;;;5044723;28;20040;-76
2023/05/16 02:56:09;;;;;;;16.45;14.60;;;;;;;;;;5048200;28;20033;-76
2023/05/16 02:58:35;;;;;;;16.13;14.52;;;;;;;;;;5045384;28;20029;-77
2023/05/16 03:01:00;;;;;;;16.05;14.38;;;;;;;;;;5040803;28;20037;-77
2023/05/16 03:03:25;;;;;;;16.92;13.95;;;;;;;;;;5044582;28;20033;-77
2023/05/16 03:05:51;;;;;;;16.77;13.43;;;;;;;;;;5045252;28;20037;-76
2023/05/16 03:08:16;;;;;;;18.73;14.70;;;;;;;;;;5042775;28;20021;-77
2023/05/16 03:10:41;;;;;;;18.73;14.20;;;;;;;;;;5041218;28;20079;-77
2023/05/16 03:13:06;;;;;;;16.70;14.68;;;;;;;;;;5043330;28;20403;-77
2023/05/16 03:15:31;;;;;;;19.83;16.10;;;;;;;;;;5046636;28;20492;-77
2023/05/16 03:17:57;;;;;;;18.35;14.77;;;;;;;;;;5051155;28;20021;-76
2023/05/16 03:20:22;;;;;;;16.05;14.45;;;;;;;;;;5043942;28;20392;-77
2023/05/16 03:22:48;;;;;;;14.95;13.35;;;;;;;;;;5040064;28;20044;-76
2023/05/16 03:25:14;;;;;;;17.92;14.02;;;;;;;;;;5047616;28;20411;-76
2023/05/16 03:27:39;;;;;;;18.45;15.15;;;;;;;;;;5040408;28;20108;-76
2023/05/16 03:30:05;;;;;;;15.50;13.90;;;;;;;;;;5043863;28;20033;-76
2023/05/16 03:32:30;;;;;;;17.00;14.35;;;;;;;;;;5043855;28;20048;-77
2023/05/16 03:34:56;;;;;;;16.33;13.18;;;;;;;;;;5040009;28;20492;-76
2023/05/16 03:37:21;;;;;;;16.65;13.45;;;;;;;;;;5042271;28;20029;-76
2023/05/16 03:39:47;;;;;;;20.05;14.32;;;;;;;;;;5042438;28;20079;-76
2023/05/16 03:42:12;;;;;;;14.95;12.43;;;;;;;;;;5040772;28;20063;-76
2023/05/16 03:44:37;;;;;;;15.88;13.70;;;;;;;;;;5042983;28;20021;-76
2023/05/16 03:47:03;;;;;;;15.98;13.77;;;;;;;;;;5044039;28;20024;-77
2023/05/16 03:49:28;;;;;;;15.77;12.27;;;;;;;;;;5040450;28;20476;-76
2023/05/16 03:51:53;;;;;;;13.60;11.57;;;;;;;;;;5043840;28;20033;-76
2023/05/16 03:54:18;;;;;;;14.13;10.15;;;;;;;;;;5044838;28;20021;-76
2023/05/16 03:56:43;;;;;;;14.50;10.27;;;;;;;;;;5048885;28;20430;-76
2023/05/16 03:59:09;;;;;;;15.93;10.85;;;;;;;;;;5043587;28;20022;-77
2023/05/16 04:01:34;;;;;;;13.65;9.32;;;;;;;;;;5042944;28;20060;-76
2023/05/16 04:03:59;;;;;;;15.10;10.65;;;;;;;;;;5045393;28;20029;-76
2023/05/16 04:06:24;;;;;;;13.55;10.05;;;;;;;;;;5046702;28;20055;-77
2023/05/16 04:08:50;;;;;;;16.15;11.02;;;;;;;;;;5046427;28;20033;-76
2023/05/16 04:11:15;;;;;;;14.85;10.45;;;;;;;;;;5043317;28;20037;-77
2023/05/16 04:13:40;;;;;;;13.82;10.05;;;;;;;;;;5044236;28;20074;-76
2023/05/16 04:16:06;;;;;;;11.27;9.80;;;;;;;;;;5041436;28;20565;-77
2023/05/16 04:18:31;;;;;;;12.63;9.40;;;;;;;;;;5042895;28;20040;-76
2023/05/16 04:20:56;;;;;;;12.15;9.45;;;;;;;;;;5043543;28;20028;-76
2023/05/16 04:23:21;;;;;;;13.05;10.50;;;;;;;;;;5046365;28;20036;-76
2023/05/16 04:25:47;;;;;;;12.40;9.88;;;;;;;;;;5048906;28;20064;-76
2023/05/16 04:28:12;;;;;;;13.38;8.70;;;;;;;;;;5047944;28;20036;-76
2023/05/16 04:30:37;;;;;;;14.85;10.35;;;;;;;;;;5041944;28;20040;-76
2023/05/16 04:33:02;;;;;;;13.82;10.63;;;;;;;;;;5043236;28;20395;-77
2023/05/16 04:35:28;;;;;;;13.00;10.68;;;;;;;;;;5042211;28;20466;-76
2023/05/16 04:37:53;;;;;;;11.23;10.02;;;;;;;;;;5044540;28;20078;-77
2023/05/16 04:40:18;;;;;;;13.52;10.35;;;;;;;;;;5040921;28;20048;-76
2023/05/16 04:42:43;;;;;;;12.48;9.55;;;;;;;;;;5049224;28;20029;-76
2023/05/16 04:45:13;;;;;;;13.75;10.13;;;;;;;;;;5051953;28;20053;-76
2023/05/16 04:47:38;;;;;;;13.95;10.75;;;;;;;;;;5048586;28;20553;-76
2023/05/16 04:50:04;;;;;;;12.10;9.15;;;;;;;;;;5041879;28;20025;-76
2023/05/16 04:52:29;;;;;;;12.93;10.77;;;;;;;;;;5043509;28;20045;-77
2023/05/16 04:54:54;;;;;;;12.95;9.38;;;;;;;;;;5041415;28;20055;-76
2023/05/16 04:57:20;;;;;;;12.60;9.68;;;;;;;;;;5042962;28;20113;-77
2023/05/16 04:59:45;;;;;;;16.30;11.73;;;;;;;;;;5049891;28;20025;-77
2023/05/16 05:02:10;;;;;;;12.80;11.00;;;;;;;;;;5050458;28;20112;-77
2023/05/16 05:04:35;;;;;;;15.60;11.88;;;;;;;;;;5038449;28;20095;-77
2023/05/16 05:07:00;;;;;;;14.32;11.20;;;;;;;;;;5045070;28;20448;-76
2023/05/16 05:09:26;;;;;;;20.77;14.18;;;;;;;;;;5040518;28;20033;-77
2023/05/16 05:11:51;;;;;;;15.18;11.23;;;;;;;;;;5041250;28;20056;-77
2023/05/16 05:14:16;;;;;;;14.35;12.35;;;;;;;;;;5044794;28;20124;-77
2023/05/16 05:16:41;;;;;;;18.85;14.20;;;;;;;;;;5039322;28;20053;-76
2023/05/16 05:19:07;;;;;;;16.42;14.05;;;;;;;;;;5042067;28;20036;-76
2023/05/16 05:21:33;;;;;;;20.88;14.27;;;;;;;;;;5041738;28;20033;-77
2023/05/16 05:23:58;;;;;;;19.17;16.27;;;;;;;;;;5040301;28;20262;-77
2023/05/16 05:26:24;;;;;;;20.20;16.20;;;;;;;;;;5046538;28;20028;-77
2023/05/16 05:28:50;;;;;;;18.20;15.88;;;;;;;;;;5042563;28;20075;-77
2023/05/16 05:31:15;;;;;;;21.15;16.63;;;;;;;;;;5047484;28;20056;-77
2023/05/16 05:33:41;;;;;;;18.05;15.95;;;;;;;;;;5047895;28;20112;-77
2023/05/16 05:36:06;;;;;;;18.40;15.95;;;;;;;;;;5047793;28;20081;-77
2023/05/16 05:38:32;;;;;;;26.33;17.98;;;;;;;;;;5045368;28;20067;-76
2023/05/16 05:40:57;;;;;;;21.98;17.13;;;;;;;;;;5047437;28;20020;-77
2023/05/16 05:43:22;;;;;;;20.75;14.75;;;;;;;;;;5046170;28;20139;-77
2023/05/16 05:45:47;;;;;;;19.92;14.95;;;;;;;;;;5045429;28;20112;-77
2023/05/16 05:48:12;;;;;;;18.63;15.52;;;;;;;;;;5051042;28;20120;-77
2023/05/16 05:50:38;;;;;;;18.48;15.25;;;;;;;;;;5045443;28;20167;-77
2023/05/16 05:53:03;;;;;;;16.77;14.73;;;;;;;;;;5044558;28;20017;-77
2023/05/16 05:55:28;;;;;;;16.63;13.15;;;;;;;;;;5046223;28;20487;-77
2023/05/16 05:57:53;;;;;;;16.20;12.65;;;;;;;;;;5047697;28;20471;-76
2023/05/16 06:00:19;;;;;;;17.75;14.15;;;;;;;;;;5047304;28;20044;-77
2023/05/16 06:02:44;;;;;;;16.35;13.32;;;;;;;;;;5049629;28;20052;-77
2023/05/16 06:05:09;;;;;;;22.58;16.08;;;;;;;;;;5044851;28;20029;-77
2023/05/16 06:07:35;;;;;;;16.02;13.20;;;;;;;;;;5045906;28;20029;-77
2023/05/16 06:10:03;;;;;;;14.77;13.18;;;;;;;;;;5043305;28;20063;-77
2023/05/16 06:12:28;;;;;;;15.10;13.50;;;;;;;;;;5050301;28;20037;-77
2023/05/16 06:14:54;;;;;;;22.25;15.23;;;;;;;;;;5045966;28;20131;-76
2023/05/16 06:17:19;;;;;;;18.30;14.20;;;;;;;;;;5048273;28;20061;-77
2023/05/16 06:19:45;;;;;;;15.82;13.45;;;;;;;;;;5049435;28;20116;-76
2023/05/16 06:22:10;;;;;;;15.85;12.85;;;;;;;;;;5042487;28;20087;-77
2023/05/16 06:24:35;;;;;;;19.92;14.43;;;;;;;;;;5043967;28;20705;-77
2023/05/16 06:27:00;;;;;;;20.30;15.57;;;;;;;;;;5045783;28;20041;-77
2023/05/16 06:29:26;;;;;;;17.10;14.15;;;;;;;;;;5047421;28;20083;-77
2023/05/16 06:31:51;;;;;;;15.50;12.88;;;;;;;;;;5043662;28;20021;-77
2023/05/16 06:34:16;;;;;;;15.88;13.10;;;;;;;;;;5044219;28;20083;-77
2023/05/16 06:36:43;;;;;;;17.83;14.15;;;;;;;;;;5043342;28;20039;-77
2023/05/16 06:39:08;;;;;;;17.30;13.13;;;;;;;;;;5045598;28;20037;-77
2023/05/16 06:41:33;;;;;;;16.35;12.13;;;;;;;;;;5043031;28;20036;-77
2023/05/16 06:43:59;;;;;;;16.58;13.02;;;;;;;;;;5046743;28;20445;-77
2023/05/16 06:46:25;;;;;;;45.28;13.82;;;;;;;;;;5043382;28;20706;-77
2023/05/16 06:48:50;;;;;;;12.85;10.98;;;;;;;;;;5046729;28;20045;-77
2023/05/16 06:51:15;;;;;;;17.55;11.93;;;;;;;;;;5044647;28;20087;-77
2023/05/16 06:53:41;;;;;;;14.25;10.70;;;;;;;;;;5051568;28;20598;-77
2023/05/16 06:56:06;;;;;;;17.05;11.35;;;;;;;;;;5045269;28;20029;-77
2023/05/16 06:58:31;;;;;;;10.70;8.45;;;;;;;;;;5045907;28;20336;-77
2023/05/16 07:00:56;;;;;;;13.15;9.93;;;;;;;;;;5041410;28;20033;-77
2023/05/16 07:03:22;;;;;;;13.57;10.10;;;;;;;;;;5044447;28;20037;-77
2023/05/16 07:05:47;;;;;;;12.02;10.15;;;;;;;;;;5041431;28;20037;-77
2023/05/16 07:08:12;;;;;;;12.85;9.18;;;;;;;;;;5047540;28;20075;-77
2023/05/16 07:10:38;;;;;;;13.10;9.98;;;;;;;;;;5047627;28;20083;-76
2023/05/16 07:13:03;;;;;;;12.85;8.85;;;;;;;;;;5048172;28;20056;-77
2023/05/16 07:15:29;;;;;;;11.93;8.98;;;;;;;;;;5039727;28;20049;-77
2023/05/16 07:17:54;;;;;;;11.73;9.95;;;;;;;;;;5051181;28;20373;-77
2023/05/16 07:20:19;;;;;;;15.30;9.88;;;;;;;;;;5050025;28;20032;-77
2023/05/16 07:22:45;;;;;;;14.27;10.18;;;;;;;;;;5040835;28;20038;-77
2023/05/16 07:25:11;;;;;;;11.88;8.88;;;;;;;;;;5044157;28;20078;-77
2023/05/16 07:27:37;;;;;;;12.90;8.80;;;;;;;;;;5047480;28;20048;-77
2023/05/16 07:30:03;;;;;;;15.82;7.85;;;;;;;;;;5046076;28;20121;-78
2023/05/16 07:32:28;;;;;;;11.23;7.38;;;;;;;;;;5044552;28;20108;-77
2023/05/16 07:34:53;;;;;;;14.75;8.48;;;;;;;;;;5042429;28;20033;-77
2023/05/16 07:37:19;;;;;;;11.75;7.78;;;;;;;;;;5040852;28;20025;-77
2023/05/16 07:39:44;;;;;;;11.07;6.93;;;;;;;;;;5043729;28;20476;-77
2023/05/16 07:42:09;;;;;;;9.85;7.68;;;;;;;;;;5044405;28;20032;-77
2023/05/16 07:44:35;;;;;;;10.63;6.90;;;;;;;;;;5041042;28;20037;-77
2023/05/16 07:47:00;;;;;;;9.13;6.78;;;;;;;;;;5043584;28;20060;-77
2023/05/16 07:49:25;;;;;;;10.10;7.10;;;;;;;;;;5041202;28;20033;-77
2023/05/16 07:51:51;;;;;;;10.63;6.90;;;;;;;;;;5044196;28;20112;-77
2023/05/16 07:54:16;;;;;;;13.35;7.95;;;;;;;;;;5044632;28;20064;-77
2023/05/16 07:56:41;;;;;;;12.77;7.97;;;;;;;;;;5043386;28;20041;-77
2023/05/16 07:59:06;;;;;;;14.18;8.15;;;;;;;;;;5045370;28;20225;-76
2023/05/16 08:01:32;;;;;;;10.75;7.00;;;;;;;;;;5042408;28;20037;-77
2023/05/16 08:03:57;;;;;;;9.57;6.97;;;;;;;;;;5047514;28;20080;-77
2023/05/16 08:06:22;;;;;;;9.65;6.32;;;;;;;;;;5047086;28;20410;-77
2023/05/16 08:08:47;;;;;;;8.32;6.03;;;;;;;;;;5045928;28;20495;-77
2023/05/16 08:11:12;;;;;;;9.70;6.18;;;;;;;;;;5032650;28;20044;-77
2023/05/16 08:13:38;;;;;;;8.05;6.05;;;;;;;;;;5043757;28;20033;-77
2023/05/16 08:16:03;;;;;;;8.15;6.03;;;;;;;;;;5044230;28;20029;-77
2023/05/16 08:18:28;;;;;;;9.45;6.63;;;;;;;;;;5048130;28;20093;-77
2023/05/16 08:20:53;;;;;;;13.02;6.22;;;;;;;;;;5061637;22;20061;-75
2023/05/16 08:23:19;;;;;;;8.57;5.95;;;;;;;;;;5050935;28;20087;-75
2023/05/16 08:25:45;;;;;;;10.02;7.10;;;;;;;;;;5051078;28;20029;-75
2023/05/16 08:28:10;;;;;;;10.38;6.35;;;;;;;;;;5050925;28;20028;-75
2023/05/16 08:30:35;;;;;;;11.15;6.40;;;;;;;;;;5050665;28;20491;-75
2023/05/16 08:33:03;;;;;;;8.18;6.43;;;;;;;;;;5051007;28;20579;-75
2023/05/16 08:35:29;;;;;;;13.18;6.60;;;;;;;;;;5050902;28;20495;-75
2023/05/16 08:37:54;;;;;;;12.68;6.75;;;;;;;;;;5050723;28;20040;-75
2023/05/16 08:40:21;;;;;;;9.65;6.03;;;;;;;;;;5047961;28;20116;-75
2023/05/16 08:42:46;;;;;;;11.25;6.40;;;;;;;;;;5048563;28;20554;-75
2023/05/16 08:45:11;;;;;;;10.75;5.60;;;;;;;;;;5043039;28;20116;-75
2023/05/16 08:47:39;;;;;;;9.75;6.10;;;;;;;;;;5047211;28;20060;-75
2023/05/16 08:50:06;;;;;;;8.60;5.35;;;;;;;;;;5050498;28;20193;-75
2023/05/16 08:52:32;;;;;;;8.77;4.95;;;;;;;;;;5048718;28;20029;-75
2023/05/16 08:55:04;;;;;;;11.98;5.90;;;;;;;;;;5047203;28;20111;-75
2023/05/16 08:57:30;;;;;;;11.75;5.75;;;;;;;;;;5049271;28;20483;-75
2023/05/16 08:59:56;;;;;;;7.80;5.03;;;;;;;;;;5047364;28;20480;-75
2023/05/16 09:02:21;;;;;;;8.23;5.18;;;;;;;;;;5032982;28;20033;-75
2023/05/16 09:04:47;;;;;;;8.57;5.03;;;;;;;;;;5051977;28;20029;-75
2023/05/16 09:07:12;;;;;;;11.38;4.95;;;;;;;;;;5049006;28;20546;-75
2023/05/16 09:09:38;;;;;;;9.25;4.75;;;;;;;;;;5052537;28;20116;-75
2023/05/16 09:12:03;;;;;;;8.48;4.20;;;;;;;;;;5054398;28;20399;-75
2023/05/16 09:14:28;;;;;;;6.50;4.32;;;;;;;;;;5054496;28;20032;-75
2023/05/16 09:17:04;;;;;;;7.95;4.63;;;;;;;;;;5036166;28;20062;-75
2023/05/16 09:19:39;;;;;;;8.77;4.35;;;;;;;;;;5053826;28;20033;-75
2023/05/16 09:22:05;;;;;;;9.10;4.05;;;;;;;;;;5050674;28;20035;-75
2023/05/16 09:24:30;;;;;;;6.20;3.90;;;;;;;;;;5051079;28;20067;-75
2023/05/16 09:26:55;;;;;;;8.18;4.35;;;;;;;;;;5048110;28;20075;-75
2023/05/16 09:29:21;;;;;;;8.18;3.58;;;;;;;;;;5048250;28;20082;-75
2023/05/16 09:31:48;;;;;;;5.93;4.10;;;;;;;;;;5054034;28;20480;-75
2023/05/16 09:34:13;;;;;;;7.25;3.35;;;;;;;;;;5053117;28;20021;-75
2023/05/16 09:36:38;;;;;;;7.15;3.60;;;;;;;;;;5051326;28;20488;-75
2023/05/16 09:39:06;;;;;;;10.60;4.00;;;;;;;;;;5052886;28;20021;-75
2023/05/16 09:41:33;;;;;;;8.80;3.65;;;;;;;;;;5053993;28;20430;-75
2023/05/16 09:43:58;;;;;;;6.95;3.30;;;;;;;;;;5053799;28;20045;-75
2023/05/16 09:46:27;;;;;;;6.15;3.33;;;;;;;;;;5050772;28;20093;-75
2023/05/16 09:48:52;;;;;;;6.32;3.25;;;;;;;;;;5050407;28;20056;-75
2023/05/16 09:51:20;;;;;;;5.22;3.30;;;;;;;;;;5053280;28;20652;-75
2023/05/16 09:53:45;;;;;;;8.48;3.22;;;;;;;;;;5051837;28;20017;-75
2023/05/16 09:56:11;;;;;;;8.40;4.57;;;;;;;;;;5044970;28;20562;-75
2023/05/16 09:58:37;;;;;;;6.07;3.55;;;;;;;;;;5047172;28;20059;-75
2023/05/16 10:01:03;;;;;;;5.32;2.80;;;;;;;;;;5049233;28;20039;-75
2023/05/16 10:03:29;;;;;;;6.00;3.30;;;;;;;;;;5053358;28;20029;-75
2023/05/16 10:05:54;;;;;;;8.25;3.42;;;;;;;;;;5035677;28;20750;-75
2023/05/16 10:08:24;;;;;;;6.63;3.42;;;;;;;;;;5053429;28;20041;-75
2023/05/16 10:10:55;;;;;;;8.63;3.05;;;;;;;;;;5047084;28;20445;-76
2023/05/16 10:13:21;;;;;;;5.32;3.20;;;;;;;;;;5050744;28;20104;-75
2023/05/16 10:15:54;;;;;;;4.45;3.05;;;;;;;;;;5050201;28;20033;-75
2023/05/16 10:18:20;;;;;;;5.63;3.35;;;;;;;;;;5053196;28;20426;-75
2023/05/16 10:20:47;;;;;;;4.93;2.95;;;;;;;;;;5048647;28;20136;-75
2023/05/16 10:23:15;;;;;;;6.13;2.90;;;;;;;;;;5034513;28;20033;-75
2023/05/16 10:25:40;;;;;;;5.60;3.40;;;;;;;;;;5040297;28;20108;-74
2023/05/16 10:28:07;;;;;;;6.70;3.58;;;;;;;;;;5039485;28;20120;-74
2023/05/16 10:30:32;;;;;;;6.22;3.58;;;;;;;;;;5042103;28;20052;-75
2023/05/16 10:32:58;;;;;;;5.90;2.70;;;;;;;;;;5042504;28;20025;-75
2023/05/16 10:35:23;;;;;;;6.28;3.22;;;;;;;;;;5050957;28;20033;-75
2023/05/16 10:37:49;;;;;;;6.18;2.92;;;;;;;;;;5031166;28;20029;-75
2023/05/16 10:40:15;;;;;;;5.10;2.70;;;;;;;;;;5050512;28;20021;-75
2023/05/16 10:42:43;;;;;;;4.20;2.28;;;;;;;;;;5035028;28;20043;-75
2023/05/16 10:45:15;;;;;;;5.30;2.92;;;;;;;;;;5048948;28;20063;-75
2023/05/16 10:47:40;;;;;;;;;;;;;;;;;;5050003;28;20112;-75
2023/05/16 10:50:06;;;;;;;4.83;2.77;;;;;;;;;;5048772;28;20011;-75
2023/05/16 10:52:32;;;;;;;4.90;2.55;;;;;;;;;;5050475;28;20271;-75
2023/05/16 10:55:00;;;;;;;4.03;2.28;;;;;;;;;;5052541;28;20025;-75
2023/05/16 10:57:26;;;;;;;6.22;2.50;;;;;;;;;;5052459;28;20032;-75
2023/05/16 10:59:51;;;;;;;4.43;2.40;;;;;;;;;;5031658;28;20029;-75
2023/05/16 11:02:21;;;;;;;4.80;2.38;;;;;;;;;;5047249;28;20095;-75
2023/05/16 11:04:50;;;;;;;6.75;2.42;;;;;;;;;;5051809;28;20040;-75
2023/05/16 11:07:19;;;;;;;4.32;2.85;;;;;;;;;;5046853;28;20040;-75
2023/05/16 11:09:45;;;;;;;4.00;2.55;;;;;;;;;;5051864;28;20033;-75
2023/05/16 11:12:11;;;;;;;4.28;2.38;;;;;;;;;;5052065;28;20498;-75
2023/05/16 11:14:37;;;;;;;6.43;2.75;;;;;;;;;;5052106;28;20037;-75
2023/05/16 11:17:07;;;;;;;6.05;2.60;;;;;;;;;;5034411;28;20131;-75
2023/05/16 11:19:43;;;;;;;4.88;2.40;;;;;;;;;;5051731;28;20457;-75
2023/05/16 11:22:19;;;;;;;4.53;2.17;;;;;;;;;;5051518;28;20051;-75
2023/05/16 11:24:49;;;;;;;5.15;2.83;;;;;;;;;;5050986;28;20032;-75
2023/05/16 11:27:20;;;;;;;6.25;2.53;;;;;;;;;;5050903;28;20395;-75
2023/05/16 11:29:45;;;;;;;4.00;2.28;;;;;;;;;;5044698;28;20029;-75
2023/05/16 11:32:11;;;;;;;4.70;2.33;;;;;;;;;;5051694;28;20029;-75
2023/05/16 11:34:38;;;;;;;5.38;2.10;;;;;;;;;;5048515;28;20103;-75
2023/05/16 11:37:04;;;;;;;6.93;2.67;;;;;;;;;;5030417;28;20098;-75
2023/05/16 11:39:30;;;;;;;5.43;2.03;;;;;;;;;;5048405;28;20438;-75
2023/05/16 11:41:55;;;;;;;4.45;2.03;;;;;;;;;;5030944;28;20452;-75
2023/05/16 11:44:21;;;;;;;4.85;2.25;;;;;;;;;;5049070;28;20068;-75
2023/05/16 11:46:46;;;;;;;5.13;2.72;;;;;;;;;;5051739;28;20025;-76
2023/05/16 11:49:12;;;;;;;5.65;2.42;;;;;;;;;;5041507;28;20051;-75
2023/05/16 11:51:40;;;;;;;3.90;1.88;;;;;;;;;;5051482;28;20032;-75
2023/05/16 11:54:08;;;;;;;5.15;2.53;;;;;;;;;;5045501;28;20033;-75
2023/05/16 11:56:36;;;;;;;3.28;1.88;;;;;;;;;;5049238;28;20033;-75
2023/05/16 11:59:02;;;;;;;6.38;2.03;;;;;;;;;;5045805;28;20290;-75
2023/05/16 12:01:31;;;;;;;4.75;2.35;;;;;;;;;;5046840;28;20029;-75
2023/05/16 12:03:56;;;;;;;6.15;2.13;;;;;;;;;;5050541;28;20048;-75
2023/05/16 12:06:22;;;;;;;5.85;2.08;;;;;;;;;;5048722;28;20033;-76
2023/05/16 12:08:50;;;;;;;3.83;2.20;;;;;;;;;;5050438;28;20120;-75
2023/05/16 12:11:16;;;;;;;5.30;2.00;;;;;;;;;;5050470;28;20083;-75
2023/05/16 12:13:41;;;;;;;5.82;2.03;;;;;;;;;;5048705;28;20503;-75
2023/05/16 12:16:06;;;;;;;6.05;2.20;;;;;;;;;;5048434;28;20029;-75
2023/05/16 12:18:32;;;;;;;6.05;2.70;;;;;;;;;;5049639;28;20087;-75
2023/05/16 12:20:57;;;;;;;5.80;2.42;;;;;;;;;;5045909;28;20028;-75
2023/05/16 12:23:22;;;;;;;5.60;2.85;;;;;;;;;;5047403;28;20644;-75
2023/05/16 12:25:48;;;;;;;4.30;2.10;;;;;;;;;;5049142;28;20036;-75
2023/05/16 12:28:13;;;;;;;5.50;1.95;;;;;;;;;;5047559;28;20098;-75
2023/05/16 12:30:40;;;;;;;6.20;2.00;;;;;;;;;;5049656;28;20077;-76
2023/05/16 12:33:10;;;;;;;6.00;1.90;;;;;;;;;;5050002;28;20036;-75
2023/05/16 12:35:37;;;;;;;5.80;1.95;;;;;;;;;;5047969;28;20033;-75
2023/05/16 12:38:03;;;;;;;5.72;2.15;;;;;;;;;;5044883;28;20095;-75
2023/05/16 12:40:28;;;;;;;5.30;1.80;;;;;;;;;;5054322;28;20037;-75
2023/05/16 12:42:54;;;;;;;5.07;1.90;;;;;;;;;;5054762;28;20036;-76
2023/05/16 12:45:20;;;;;;;4.38;1.90;;;;;;;;;;5051071;28;20099;-75
2023/05/16 12:47:46;;;;;;;5.88;2.10;;;;;;;;;;5033477;28;20638;-76
2023/05/16 12:50:16;;;;;;;5.55;2.17;;;;;;;;;;5054176;28;20037;-75
2023/05/16 12:52:50;;;;;;;6.47;2.30;;;;;;;;;;5032905;28;20033;-75
2023/05/16 12:55:17;;;;;;;8.38;2.30;;;;;;;;;;5053638;28;20091;-75
2023/05/16 12:57:43;;;;;;;6.03;1.80;;;;;;;;;;5054596;28;20059;-75
2023/05/16 13:00:10;;;;;;;4.40;1.42;;;;;;;;;;5053429;28;20090;-75
2023/05/16 13:02:36;;;;;;;8.20;2.40;;;;;;;;;;5036599;28;20060;-75
2023/05/16 13:05:01;;;;;;;6.00;1.92;;;;;;;;;;5054573;28;20064;-75
2023/05/16 13:07:26;;;;;;;6.82;2.25;;;;;;;;;;5051927;28;20029;-75
2023/05/16 13:09:51;;;;;;;7.25;2.13;;;;;;;;;;5054112;28;20248;-75
2023/05/16 13:12:16;;;;;;;9.10;2.33;;;;;;;;;;5054554;28;20063;-75
2023/05/16 13:14:42;;;;;;;8.20;2.38;;;;;;;;;;5054655;28;20116;-75
2023/05/16 13:17:07;;;;;;;6.85;2.08;;;;;;;;;;5054358;28;20112;-75
2023/05/16 13:19:32;;;;;;;9.70;2.40;;;;;;;;;;5053706;28;20136;-75
2023/05/16 13:21:57;;;;;;;6.75;1.92;;;;;;;;;;5052441;28;20043;-75
2023/05/16 13:24:22;;;;;;;5.95;2.45;;;;;;;;;;5044618;28;20040;-75
2023/05/16 13:26:48;;;;;;;8.23;2.58;;;;;;;;;;5054373;28;20120;-75
2023/05/16 13:29:13;;;;;;;5.88;2.28;;;;;;;;;;5051836;28;20437;-75
2023/05/16 13:31:38;;;;;;;7.32;2.35;;;;;;;;;;5052433;28;20048;-75
2023/05/16 13:34:03;;;;;;;6.95;2.40;;;;;;;;;;5054107;28;20033;-75
2023/05/16 13:36:29;;;;;;;8.93;1.63;;;;;;;;;;5054147;28;20056;-75
2023/05/16 13:38:55;;;;;;;5.45;1.80;;;;;;;;;;5053770;28;20419;-75
2023/05/16 13:41:21;;;;;;;6.75;2.47;;;;;;;;;;5053997;28;20124;-75
2023/05/16 13:43:46;;;;;;;7.95;2.22;;;;;;;;;;5051538;28;20021;-75
2023/05/16 13:46:11;;;;;;;7.72;2.72;;;;;;;;;;5047688;28;20590;-75
2023/05/16 13:48:36;;;;;;;6.00;1.75;;;;;;;;;;5044004;28;20033;-75
2023/05/16 13:51:02;;;;;;;6.10;1.88;;;;;;;;;;5052574;28;20060;-75
2023/05/16 13:53:27;;;;;;;4.32;1.45;;;;;;;;;;5048378;28;20059;-75
2023/05/16 13:55:53;;;;;;;5.40;1.58;;;;;;;;;;5053915;28;20035;-75
2023/05/16 13:58:18;;;;;;;5.10;1.75;;;;;;;;;;5046481;28;20030;-75
2023/05/16 14:00:44;;;;;;;10.48;1.98;;;;;;;;;;5046697;28;20037;-75
2023/05/16 14:03:09;;;;;;;6.75;1.65;;;;;;;;;;5042713;28;20024;-76
2023/05/16 14:05:34;;;;;;;7.53;1.65;;;;;;;;;;5053050;28;20029;-75
2023/05/16 14:08:00;;;;;;;5.22;1.42;;;;;;;;;;5053439;28;20399;-75
2023/05/16 14:10:25;;;;;;;6.35;1.65;;;;;;;;;;5016202;28;20029;-75
2023/05/16 14:12:50;;;;;;;5.72;1.70;;;;;;;;;;5050870;28;20078;-75
2023/05/16 14:15:15;;;;;;;5.32;1.55;;;;;;;;;;5052666;28;20101;-76
2023/05/16 14:17:41;;;;;;;7.53;2.25;;;;;;;;;;5046268;28;20108;-76
2023/05/16 14:20:09;;;;;;;8.68;1.38;;;;;;;;;;5052167;28;20039;-76
2023/05/16 14:22:35;;;;;;;6.13;1.42;;;;;;;;;;5029175;28;20399;-76
2023/05/16 14:25:00;;;;;;;6.70;1.70;;;;;;;;;;5050623;28;20037;-76
2023/05/16 14:27:25;;;;;;;5.13;1.88;;;;;;;;;;5052097;22;20045;-78